sensor_id;sensor_type;location;lat;lon;timestamp;pressure;altitude;pressure_sealevel;temperature;humidity
50484;BME280;36409;52.168;20.878;2024-01-30T00:01:38;102252.11;;;-0.99;74.22
50484;BME280;36409;52.168;20.878;2024-01-30T00:04:08;102252.02;;;-1.01;74.04
50484;BME280;36409;52.168;20.878;2024-01-30T00:06:37;102249.38;;;-1.02;74.84
50484;BME280;36409;52.168;20.878;2024-01-30T00:09:08;102244.13;;;-1.04;74.24
50484;BME280;36409;52.168;20.878;2024-01-30T00:11:40;102235.45;;;-1.06;74.56
50484;BME280;36409;52.168;20.878;2024-01-30T00:14:10;102233.71;;;-1.07;74.65
50484;BME280;36409;52.168;20.878;2024-01-30T00:16:39;102242.19;;;-1.08;74.58
50484;BME280;36409;52.168;20.878;2024-01-30T00:19:08;102236.94;;;-1.10;74.67
50484;BME280;36409;52.168;20.878;2024-01-30T00:21:37;102234.29;;;-1.11;74.26
50484;BME280;36409;52.168;20.878;2024-01-30T00:24:09;102229.95;;;-1.12;74.36
50484;BME280;36409;52.168;20.878;2024-01-30T00:26:38;102226.40;;;-1.14;74.22
50484;BME280;36409;52.168;20.878;2024-01-30T00:29:07;102230.66;;;-1.15;74.35
50484;BME280;36409;52.168;20.878;2024-01-30T00:31:36;102225.41;;;-1.16;74.87
50484;BME280;36409;52.168;20.878;2024-01-30T00:34:10;102222.67;;;-1.19;74.79
50484;BME280;36409;52.168;20.878;2024-01-30T00:36:39;102226.03;;;-1.20;74.56
50484;BME280;36409;52.168;20.878;2024-01-30T00:39:08;102229.38;;;-1.21;74.70
50484;BME280;36409;52.168;20.878;2024-01-30T00:41:37;102221.56;;;-1.23;74.45
50484;BME280;36409;52.168;20.878;2024-01-30T00:44:07;102228.38;;;-1.23;75.19
50484;BME280;36409;52.168;20.878;2024-01-30T00:46:37;102231.73;;;-1.25;74.48
50484;BME280;36409;52.168;20.878;2024-01-30T00:49:11;102235.00;;;-1.27;75.08
50484;BME280;36409;52.168;20.878;2024-01-30T00:51:40;102237.35;;;-1.30;74.62
50484;BME280;36409;52.168;20.878;2024-01-30T00:54:09;102234.70;;;-1.32;74.83
50484;BME280;36409;52.168;20.878;2024-01-30T00:56:38;102241.48;;;-1.32;74.74
50484;BME280;36409;52.168;20.878;2024-01-30T00:59:07;102234.50;;;-1.35;74.71
50484;BME280;36409;52.168;20.878;2024-01-30T01:01:36;102232.72;;;-1.36;74.99
50484;BME280;36409;52.168;20.878;2024-01-30T01:04:06;102230.95;;;-1.37;74.82
50484;BME280;36409;52.168;20.878;2024-01-30T01:06:36;102232.63;;;-1.37;74.62
50484;BME280;36409;52.168;20.878;2024-01-30T01:09:06;102234.20;;;-1.40;75.27
50484;BME280;36409;52.168;20.878;2024-01-30T01:11:36;102228.09;;;-1.42;74.61
50484;BME280;36409;52.168;20.878;2024-01-30T01:14:06;102222.18;;;-1.41;75.02
50484;BME280;36409;52.168;20.878;2024-01-30T01:16:36;102226.52;;;-1.40;75.20
50484;BME280;36409;52.168;20.878;2024-01-30T01:19:06;102230.73;;;-1.40;74.82
50484;BME280;36409;52.168;20.878;2024-01-30T01:21:35;102223.05;;;-1.40;75.14
50484;BME280;36409;52.168;20.878;2024-01-30T01:24:05;102229.08;;;-1.40;74.76
50484;BME280;36409;52.168;20.878;2024-01-30T01:26:36;102222.18;;;-1.41;75.39
50484;BME280;36409;52.168;20.878;2024-01-30T01:29:05;102222.18;;;-1.41;75.40
50484;BME280;36409;52.168;20.878;2024-01-30T01:31:44;102221.39;;;-1.40;75.47
50484;BME280;36409;52.168;20.878;2024-01-30T01:34:13;102216.18;;;-1.41;75.32
50484;BME280;36409;52.168;20.878;2024-01-30T01:36:43;102223.75;;;-1.43;75.03
50484;BME280;36409;52.168;20.878;2024-01-30T01:39:12;102222.46;;;-1.49;74.85
50484;BME280;36409;52.168;20.878;2024-01-30T01:41:41;102222.29;;;-1.52;75.31
50484;BME280;36409;52.168;20.878;2024-01-30T01:44:13;102220.39;;;-1.55;75.17
50484;BME280;36409;52.168;20.878;2024-01-30T01:46:43;102216.05;;;-1.56;75.45
50484;BME280;36409;52.168;20.878;2024-01-30T01:49:12;102213.49;;;-1.56;75.24
50484;BME280;36409;52.168;20.878;2024-01-30T01:51:42;102204.73;;;-1.60;75.50
50484;BME280;36409;52.168;20.878;2024-01-30T01:54:14;102203.86;;;-1.60;75.16
50484;BME280;36409;52.168;20.878;2024-01-30T01:56:44;102200.39;;;-1.61;75.19
50484;BME280;36409;52.168;20.878;2024-01-30T01:59:14;102199.52;;;-1.61;74.91
50484;BME280;36409;52.168;20.878;2024-01-30T02:01:43;102191.92;;;-1.60;75.10
50484;BME280;36409;52.168;20.878;2024-01-30T02:04:16;102189.36;;;-1.60;75.70
50484;BME280;36409;52.168;20.878;2024-01-30T02:06:46;102195.27;;;-1.61;75.63
50484;BME280;36409;52.168;20.878;2024-01-30T02:09:15;102187.70;;;-1.59;75.50
50484;BME280;36409;52.168;20.878;2024-01-30T02:11:44;102187.70;;;-1.59;75.34
50484;BME280;36409;52.168;20.878;2024-01-30T02:14:13;102187.70;;;-1.59;75.05
50484;BME280;36409;52.168;20.878;2024-01-30T02:16:41;102181.80;;;-1.58;75.67
50484;BME280;36409;52.168;20.878;2024-01-30T02:19:13;102181.80;;;-1.58;75.08
50484;BME280;36409;52.168;20.878;2024-01-30T02:21:43;102181.80;;;-1.58;75.46
50484;BME280;36409;52.168;20.878;2024-01-30T02:24:12;102175.77;;;-1.59;75.88
50484;BME280;36409;52.168;20.878;2024-01-30T02:26:41;102173.13;;;-1.60;75.72
50484;BME280;36409;52.168;20.878;2024-01-30T02:29:10;102178.24;;;-1.60;74.96
50484;BME280;36409;52.168;20.878;2024-01-30T02:31:39;102185.14;;;-1.59;75.46
50484;BME280;36409;52.168;20.878;2024-01-30T02:34:08;102186.71;;;-1.61;75.37
50484;BME280;36409;52.168;20.878;2024-01-30T02:36:37;102184.94;;;-1.62;75.15
50484;BME280;36409;52.168;20.878;2024-01-30T02:39:06;102183.16;;;-1.63;75.40
50484;BME280;36409;52.168;20.878;2024-01-30T02:41:35;102187.50;;;-1.62;75.77
50484;BME280;36409;52.168;20.878;2024-01-30T02:44:04;102195.97;;;-1.63;75.27
50484;BME280;36409;52.168;20.878;2024-01-30T02:46:36;102195.09;;;-1.64;75.53
50484;BME280;36409;52.168;20.878;2024-01-30T02:49:06;102189.97;;;-1.64;75.37
50484;BME280;36409;52.168;20.878;2024-01-30T02:51:35;102191.54;;;-1.66;75.60
50484;BME280;36409;52.168;20.878;2024-01-30T02:54:04;102193.19;;;-1.66;76.09
50484;BME280;36409;52.168;20.878;2024-01-30T02:56:34;102188.08;;;-1.66;75.33
50484;BME280;36409;52.168;20.878;2024-01-30T02:59:05;102184.73;;;-1.65;75.31
50484;BME280;36409;52.168;20.878;2024-01-30T03:01:42;102188.08;;;-1.66;75.87
50484;BME280;36409;52.168;20.878;2024-01-30T03:04:12;102181.30;;;-1.66;75.69
50484;BME280;36409;52.168;20.878;2024-01-30T03:06:46;102182.08;;;-1.67;75.84
50484;BME280;36409;52.168;20.878;2024-01-30T03:09:16;102180.39;;;-1.66;75.50
50484;BME280;36409;52.168;20.878;2024-01-30T03:11:46;102177.83;;;-1.66;75.57
50484;BME280;36409;52.168;20.878;2024-01-30T03:14:18;102182.08;;;-1.67;75.85
50484;BME280;36409;52.168;20.878;2024-01-30T03:16:47;102186.30;;;-1.67;76.23
50484;BME280;36409;52.168;20.878;2024-01-30T03:19:18;102170.93;;;-1.67;76.37
50484;BME280;36409;52.168;20.878;2024-01-30T03:21:48;102182.86;;;-1.68;75.95
50484;BME280;36409;52.168;20.878;2024-01-30T03:24:17;102188.77;;;-1.69;76.02
50484;BME280;36409;52.168;20.878;2024-01-30T03:26:45;102188.69;;;-1.71;75.76
50484;BME280;36409;52.168;20.878;2024-01-30T03:29:14;102180.88;;;-1.72;75.77
50484;BME280;36409;52.168;20.878;2024-01-30T03:31:44;102182.56;;;-1.73;76.06
50484;BME280;36409;52.168;20.878;2024-01-30T03:34:13;102187.69;;;-1.73;76.28
50484;BME280;36409;52.168;20.878;2024-01-30T03:36:42;102191.82;;;-1.75;75.77
50484;BME280;36409;52.168;20.878;2024-01-30T03:39:11;102178.80;;;-1.78;75.74
50484;BME280;36409;52.168;20.878;2024-01-30T03:41:43;102183.93;;;-1.78;75.94
50484;BME280;36409;52.168;20.878;2024-01-30T03:44:12;102181.28;;;-1.79;75.59
50484;BME280;36409;52.168;20.878;2024-01-30T03:46:41;102181.19;;;-1.81;75.91
50484;BME280;36409;52.168;20.878;2024-01-30T03:49:10;102174.30;;;-1.82;76.05
50484;BME280;36409;52.168;20.878;2024-01-30T03:51:40;102170.74;;;-1.84;76.29
50484;BME280;36409;52.168;20.878;2024-01-30T03:54:09;102170.62;;;-1.86;76.25
50484;BME280;36409;52.168;20.878;2024-01-30T03:56:41;102169.75;;;-1.86;76.07
50484;BME280;36409;52.168;20.878;2024-01-30T03:59:10;102169.75;;;-1.86;75.98
50484;BME280;36409;52.168;20.878;2024-01-30T04:01:39;102172.22;;;-1.88;75.66
50484;BME280;36409;52.168;20.878;2024-01-30T04:04:08;102174.78;;;-1.88;76.23
50484;BME280;36409;52.168;20.878;2024-01-30T04:06:37;102171.11;;;-1.91;76.32
50484;BME280;36409;52.168;20.878;2024-01-30T04:09:06;102177.91;;;-1.92;76.08
50484;BME280;36409;52.168;20.878;2024-01-30T04:11:37;102170.14;;;-1.93;75.89
50484;BME280;36409;52.168;20.878;2024-01-30T04:14:06;102165.02;;;-1.93;76.31
50484;BME280;36409;52.168;20.878;2024-01-30T04:16:43;102165.81;;;-1.94;76.00
50484;BME280;36409;52.168;20.878;2024-01-30T04:19:12;102168.25;;;-1.96;76.16
50484;BME280;36409;52.168;20.878;2024-01-30T04:21:40;102163.04;;;-1.97;75.77
50484;BME280;36409;52.168;20.878;2024-01-30T04:24:09;102169.84;;;-1.98;76.08
50484;BME280;36409;52.168;20.878;2024-01-30T04:26:39;102166.38;;;-1.98;76.31
50484;BME280;36409;52.168;20.878;2024-01-30T04:29:08;102167.16;;;-1.99;75.85
50484;BME280;36409;52.168;20.878;2024-01-30T04:31:37;102171.41;;;-2.00;75.67
50484;BME280;36409;52.168;20.878;2024-01-30T04:34:06;102171.29;;;-2.02;76.09
50484;BME280;36409;52.168;20.878;2024-01-30T04:36:39;102175.45;;;-2.04;76.09
50484;BME280;36409;52.168;20.878;2024-01-30T04:39:10;102169.42;;;-2.04;75.80
50484;BME280;36409;52.168;20.878;2024-01-30T04:41:40;102171.11;;;-2.05;76.69
50484;BME280;36409;52.168;20.878;2024-01-30T04:44:09;102178.79;;;-2.05;76.22
50484;BME280;36409;52.168;20.878;2024-01-30T04:49:48;102169.21;;;-2.07;75.90
50484;BME280;36409;52.168;20.878;2024-01-30T04:52:18;102161.45;;;-2.09;76.17
50484;BME280;36409;52.168;20.878;2024-01-30T04:54:50;102162.31;;;-2.08;76.05
50484;BME280;36409;52.168;20.878;2024-01-30T04:57:23;102166.56;;;-2.09;76.20
50484;BME280;36409;52.168;20.878;2024-01-30T04:59:52;102167.44;;;-2.08;76.36
50484;BME280;36409;52.168;20.878;2024-01-30T05:02:28;102161.45;;;-2.09;76.11
50484;BME280;36409;52.168;20.878;2024-01-30T05:05:02;102160.58;;;-2.09;76.29
50484;BME280;36409;52.168;20.878;2024-01-30T05:07:31;102161.36;;;-2.10;76.49
50484;BME280;36409;52.168;20.878;2024-01-30T05:10:02;102159.67;;;-2.10;76.35
50484;BME280;36409;52.168;20.878;2024-01-30T05:12:38;102156.33;;;-2.09;76.46
50484;BME280;36409;52.168;20.878;2024-01-30T05:15:15;102158.89;;;-2.09;76.46
50484;BME280;36409;52.168;20.878;2024-01-30T05:17:44;102157.20;;;-2.08;76.29
50484;BME280;36409;52.168;20.878;2024-01-30T05:20:14;102155.45;;;-2.09;76.30
50484;BME280;36409;52.168;20.878;2024-01-30T05:22:45;102156.23;;;-2.10;76.38
50484;BME280;36409;52.168;20.878;2024-01-30T05:25:14;102153.67;;;-2.10;76.10
50484;BME280;36409;52.168;20.878;2024-01-30T05:27:43;102155.33;;;-2.11;76.29
50484;BME280;36409;52.168;20.878;2024-01-30T05:30:13;102159.58;;;-2.11;76.46
50484;BME280;36409;52.168;20.878;2024-01-30T05:32:45;102157.89;;;-2.11;76.18
50484;BME280;36409;52.168;20.878;2024-01-30T05:35:14;102154.45;;;-2.11;76.61
50484;BME280;36409;52.168;20.878;2024-01-30T05:37:43;102156.11;;;-2.12;76.23
50484;BME280;36409;52.168;20.878;2024-01-30T05:40:14;102163.01;;;-2.11;76.12
50484;BME280;36409;52.168;20.878;2024-01-30T05:42:43;102159.58;;;-2.11;76.58
50484;BME280;36409;52.168;20.878;2024-01-30T05:45:12;102162.14;;;-2.11;76.15
50484;BME280;36409;52.168;20.878;2024-01-30T05:47:41;102162.14;;;-2.11;76.73
50484;BME280;36409;52.168;20.878;2024-01-30T05:50:10;102163.01;;;-2.11;76.34
50484;BME280;36409;52.168;20.878;2024-01-30T05:52:44;102162.92;;;-2.12;76.75
50484;BME280;36409;52.168;20.878;2024-01-30T05:55:14;102164.58;;;-2.13;76.90
50484;BME280;36409;52.168;20.878;2024-01-30T05:57:49;102162.92;;;-2.12;76.65
50484;BME280;36409;52.168;20.878;2024-01-30T06:00:19;102160.27;;;-2.14;76.54
50484;BME280;36409;52.168;20.878;2024-01-30T06:02:48;102160.27;;;-2.14;76.77
50484;BME280;36409;52.168;20.878;2024-01-30T06:05:24;102162.70;;;-2.15;76.64
50484;BME280;36409;52.168;20.878;2024-01-30T06:07:53;102156.72;;;-2.16;76.54
50484;BME280;36409;52.168;20.878;2024-01-30T06:10:22;102159.28;;;-2.16;76.56
50484;BME280;36409;52.168;20.878;2024-01-30T06:12:52;102156.72;;;-2.16;76.74
50484;BME280;36409;52.168;20.878;2024-01-30T06:15:20;102158.38;;;-2.17;76.19
50484;BME280;36409;52.168;20.878;2024-01-30T06:17:49;102159.28;;;-2.16;76.45
50484;BME280;36409;52.168;20.878;2024-01-30T06:20:19;102157.59;;;-2.15;76.49
50484;BME280;36409;52.168;20.878;2024-01-30T06:22:48;102160.15;;;-2.15;76.66
50484;BME280;36409;52.168;20.878;2024-01-30T06:25:17;102161.05;;;-2.15;76.34
50484;BME280;36409;52.168;20.878;2024-01-30T06:27:47;102159.36;;;-2.14;76.39
50484;BME280;36409;52.168;20.878;2024-01-30T06:30:16;102161.14;;;-2.13;76.39
50484;BME280;36409;52.168;20.878;2024-01-30T06:32:45;102165.48;;;-2.12;76.43
50484;BME280;36409;52.168;20.878;2024-01-30T06:35:14;102163.80;;;-2.12;76.61
50484;BME280;36409;52.168;20.878;2024-01-30T06:37:43;102165.48;;;-2.12;76.33
50484;BME280;36409;52.168;20.878;2024-01-30T06:40:13;102163.01;;;-2.11;76.48
50484;BME280;36409;52.168;20.878;2024-01-30T06:42:43;102167.34;;;-2.10;76.58
50484;BME280;36409;52.168;20.878;2024-01-30T06:45:14;102171.59;;;-2.10;76.56
50484;BME280;36409;52.168;20.878;2024-01-30T06:47:44;102166.56;;;-2.09;76.56
50484;BME280;36409;52.168;20.878;2024-01-30T06:50:13;102174.45;;;-2.06;76.27
50484;BME280;36409;52.168;20.878;2024-01-30T06:52:42;102175.53;;;-2.02;76.75
50484;BME280;36409;52.168;20.878;2024-01-30T06:55:12;102166.30;;;-2.00;76.52
50484;BME280;36409;52.168;20.878;2024-01-30T06:57:41;102171.59;;;-1.97;76.29
50484;BME280;36409;52.168;20.878;2024-01-30T07:00:14;102166.68;;;-1.94;76.52
50484;BME280;36409;52.168;20.878;2024-01-30T07:02:57;102167.97;;;-1.87;76.79
50484;BME280;36409;52.168;20.878;2024-01-30T07:05:26;102178.63;;;-1.81;76.54
50484;BME280;36409;52.168;20.878;2024-01-30T07:07:55;102169.47;;;-1.77;76.63
50484;BME280;36409;52.168;20.878;2024-01-30T07:10:25;102178.31;;;-1.72;76.78
50484;BME280;36409;52.168;20.878;2024-01-30T07:12:54;102176.05;;;-1.67;76.87
50484;BME280;36409;52.168;20.878;2024-01-30T07:15:23;102174.48;;;-1.65;76.82
50484;BME280;36409;52.168;20.878;2024-01-30T07:17:52;102173.99;;;-1.60;77.00
50484;BME280;36409;52.168;20.878;2024-01-30T07:20:24;102172.51;;;-1.56;77.29
50484;BME280;36409;52.168;20.878;2024-01-30T07:22:54;102179.70;;;-1.50;76.46
50484;BME280;36409;52.168;20.878;2024-01-30T07:25:23;102170.85;;;-1.42;76.91
50484;BME280;36409;52.168;20.878;2024-01-30T07:27:57;102174.69;;;-1.35;77.15
50484;BME280;36409;52.168;20.878;2024-01-30T07:30:31;102166.59;;;-1.28;76.58
50484;BME280;36409;52.168;20.878;2024-01-30T07:33:01;102175.75;;;-1.18;77.06
50484;BME280;36409;52.168;20.878;2024-01-30T07:35:31;102173.77;;;-1.09;77.10
50484;BME280;36409;52.168;20.878;2024-01-30T07:37:59;102175.11;;;-1.01;76.87
50484;BME280;36409;52.168;20.878;2024-01-30T07:40:28;102170.35;;;-0.95;76.58
50484;BME280;36409;52.168;20.878;2024-01-30T07:42:58;102175.25;;;-0.84;76.75
50484;BME280;36409;52.168;20.878;2024-01-30T07:45:27;102173.36;;;-0.73;76.78
50484;BME280;36409;52.168;20.878;2024-01-30T07:48:02;102170.75;;;-0.60;77.71
50484;BME280;36409;52.168;20.878;2024-01-30T07:50:31;102175.83;;;-0.47;77.12
50484;BME280;36409;52.168;20.878;2024-01-30T07:53:01;102170.60;;;-0.33;76.82
50484;BME280;36409;52.168;20.878;2024-01-30T07:55:30;102170.45;;;-0.21;77.60
50484;BME280;36409;52.168;20.878;2024-01-30T07:58:03;102163.55;;;-0.07;77.67
50484;BME280;36409;52.168;20.878;2024-01-30T08:00:32;102167.81;;;0.07;77.40
50484;BME280;36409;52.168;20.878;2024-01-30T08:03:07;102163.38;;;0.20;77.52
50484;BME280;36409;52.168;20.878;2024-01-30T08:05:36;102159.73;;;0.31;77.80
50484;BME280;36409;52.168;20.878;2024-01-30T08:08:06;102161.22;;;0.42;77.02
50484;BME280;36409;52.168;20.878;2024-01-30T08:10:37;102159.23;;;0.53;77.09
50484;BME280;36409;52.168;20.878;2024-01-30T08:13:06;102161.61;;;0.65;77.10
50484;BME280;36409;52.168;20.878;2024-01-30T08:15:37;102155.37;;;0.76;78.02
50484;BME280;36409;52.168;20.878;2024-01-30T08:18:06;102157.81;;;0.90;77.47
50484;BME280;36409;52.168;20.878;2024-01-30T08:20:35;102152.27;;;0.99;77.92
50484;BME280;36409;52.168;20.878;2024-01-30T08:23:04;102150.27;;;1.10;76.99
50484;BME280;36409;52.168;20.878;2024-01-30T08:25:35;102150.02;;;1.21;77.08
50484;BME280;36409;52.168;20.878;2024-01-30T08:28:05;102142.95;;;1.34;77.42
50484;BME280;36409;52.168;20.878;2024-01-30T08:30:35;102142.62;;;1.44;78.02
50484;BME280;36409;52.168;20.878;2024-01-30T08:33:04;102136.27;;;1.54;78.09
50484;BME280;36409;52.168;20.878;2024-01-30T08:35:34;102135.02;;;1.64;76.96
50484;BME280;36409;52.168;20.878;2024-01-30T08:38:03;102140.31;;;1.83;77.04
50484;BME280;36409;52.168;20.878;2024-01-30T08:40:32;102138.05;;;2.08;76.83
50484;BME280;36409;52.168;20.878;2024-01-30T08:43:03;102131.52;;;2.33;76.80
50484;BME280;36409;52.168;20.878;2024-01-30T08:45:32;102131.55;;;2.70;77.36
50484;BME280;36409;52.168;20.878;2024-01-30T08:48:04;102137.61;;;3.49;76.15
50484;BME280;36409;52.168;20.878;2024-01-30T08:50:34;102137.02;;;4.18;75.31
50484;BME280;36409;52.168;20.878;2024-01-30T08:53:03;102128.27;;;4.15;75.09
50484;BME280;36409;52.168;20.878;2024-01-30T08:55:32;102137.38;;;4.05;75.77
50484;BME280;36409;52.168;20.878;2024-01-30T08:58:04;102145.53;;;3.95;76.23
50484;BME280;36409;52.168;20.878;2024-01-30T09:00:36;102137.38;;;4.05;75.86
50484;BME280;36409;52.168;20.878;2024-01-30T09:03:05;102135.47;;;4.22;76.04
50484;BME280;36409;52.168;20.878;2024-01-30T09:05:35;102137.06;;;4.41;76.21
50484;BME280;36409;52.168;20.878;2024-01-30T09:08:05;102139.42;;;4.35;76.05
50484;BME280;36409;52.168;20.878;2024-01-30T09:10:36;102128.25;;;4.36;76.15
50484;BME280;36409;52.168;20.878;2024-01-30T09:13:05;102137.23;;;4.46;76.55
50484;BME280;36409;52.168;20.878;2024-01-30T09:15:34;102125.86;;;4.63;75.69
50484;BME280;36409;52.168;20.878;2024-01-30T09:18:04;102135.13;;;4.81;75.35
50484;BME280;36409;52.168;20.878;2024-01-30T09:20:33;102128.66;;;4.70;75.84
50484;BME280;36409;52.168;20.878;2024-01-30T09:23:03;102124.09;;;4.62;75.68
50484;BME280;36409;52.168;20.878;2024-01-30T09:25:32;102125.69;;;4.59;75.72
50484;BME280;36409;52.168;20.878;2024-01-30T09:28:02;102128.19;;;4.57;75.52
50484;BME280;36409;52.168;20.878;2024-01-30T09:30:31;102117.80;;;4.56;75.08
50484;BME280;36409;52.168;20.878;2024-01-30T09:33:03;102122.20;;;4.58;75.04
50484;BME280;36409;52.168;20.878;2024-01-30T09:35:33;102122.33;;;4.61;74.67
50484;BME280;36409;52.168;20.878;2024-01-30T09:38:02;102115.64;;;4.67;74.86
50484;BME280;36409;52.168;20.878;2024-01-30T09:40:31;102120.98;;;4.71;74.90
50484;BME280;36409;52.168;20.878;2024-01-30T09:43:01;102124.56;;;4.75;75.34
50484;BME280;36409;52.168;20.878;2024-01-30T09:45:30;102123.83;;;4.79;74.81
50484;BME280;36409;52.168;20.878;2024-01-30T09:48:04;102121.45;;;4.84;74.71
50484;BME280;36409;52.168;20.878;2024-01-30T09:50:35;102121.66;;;4.90;74.81
50484;BME280;36409;52.168;20.878;2024-01-30T09:53:07;102117.55;;;4.95;74.87
50484;BME280;36409;52.168;20.878;2024-01-30T09:55:36;102117.77;;;5.01;74.68
50484;BME280;36409;52.168;20.878;2024-01-30T09:58:06;102117.10;;;5.07;74.49
50484;BME280;36409;52.168;20.878;2024-01-30T10:00:36;102113.08;;;5.15;73.86
50484;BME280;36409;52.168;20.878;2024-01-30T10:03:05;102109.31;;;5.55;73.57
50484;BME280;36409;52.168;20.878;2024-01-30T10:05:36;102110.20;;;6.08;72.69
50484;BME280;36409;52.168;20.878;2024-01-30T10:08:07;102101.95;;;6.21;72.55
50484;BME280;36409;52.168;20.878;2024-01-30T10:10:37;102099.40;;;6.50;72.26
50484;BME280;36409;52.168;20.878;2024-01-30T10:13:06;102101.86;;;6.76;72.20
50484;BME280;36409;52.168;20.878;2024-01-30T10:15:38;102094.14;;;8.10;70.58
50484;BME280;36409;52.168;20.878;2024-01-30T10:18:08;102086.94;;;10.27;67.53
50484;BME280;36409;52.168;20.878;2024-01-30T10:20:39;102079.75;;;11.56;66.52
50484;BME280;36409;52.168;20.878;2024-01-30T10:23:08;102081.32;;;12.53;65.74
50484;BME280;36409;52.168;20.878;2024-01-30T10:25:37;102072.02;;;13.67;65.05
50484;BME280;36409;52.168;20.878;2024-01-30T10:28:07;102064.00;;;14.41;63.78
50484;BME280;36409;52.168;20.878;2024-01-30T10:30:36;102063.82;;;14.89;63.27
50484;BME280;36409;52.168;20.878;2024-01-30T10:33:05;102060.06;;;15.32;61.96
50484;BME280;36409;52.168;20.878;2024-01-30T10:35:36;102049.14;;;15.82;62.16
50484;BME280;36409;52.168;20.878;2024-01-30T10:38:07;102051.23;;;16.33;61.40
50484;BME280;36409;52.168;20.878;2024-01-30T10:40:39;102049.41;;;16.41;60.50
50484;BME280;36409;52.168;20.878;2024-01-30T10:43:11;102037.70;;;16.62;59.82
50484;BME280;36409;52.168;20.878;2024-01-30T10:45:44;102045.45;;;16.76;60.21
50484;BME280;36409;52.168;20.878;2024-01-30T10:48:16;102045.52;;;16.70;59.34
50484;BME280;36409;52.168;20.878;2024-01-30T10:50:51;102038.33;;;16.83;58.97
50484;BME280;36409;52.168;20.878;2024-01-30T10:53:29;102040.70;;;17.03;58.66
50484;BME280;36409;52.168;20.878;2024-01-30T10:56:03;102036.41;;;16.96;57.64
50484;BME280;36409;52.168;20.878;2024-01-30T10:58:35;102030.59;;;16.69;57.64
50484;BME280;36409;52.168;20.878;2024-01-30T11:01:06;102031.67;;;16.54;58.11
50484;BME280;36409;52.168;20.878;2024-01-30T11:03:36;102023.45;;;16.07;57.91
50484;BME280;36409;52.168;20.878;2024-01-30T11:06:11;102023.91;;;15.54;58.82
50484;BME280;36409;52.168;20.878;2024-01-30T11:08:42;102027.08;;;14.80;59.44
50484;BME280;36409;52.168;20.878;2024-01-30T11:11:11;102025.59;;;14.12;59.96
50484;BME280;36409;52.168;20.878;2024-01-30T11:13:44;102024.77;;;13.48;60.45
50484;BME280;36409;52.168;20.878;2024-01-30T11:16:13;102029.94;;;13.06;60.77
50484;BME280;36409;52.168;20.878;2024-01-30T11:18:42;102021.91;;;12.46;60.43
50484;BME280;36409;52.168;20.878;2024-01-30T11:21:14;102021.69;;;12.01;60.71
50484;BME280;36409;52.168;20.878;2024-01-30T11:23:43;102017.88;;;11.60;61.26
50484;BME280;36409;52.168;20.878;2024-01-30T11:26:12;102009.72;;;11.21;61.63
50484;BME280;36409;52.168;20.878;2024-01-30T11:28:41;102017.27;;;10.93;61.34
50484;BME280;36409;52.168;20.878;2024-01-30T11:31:09;102013.61;;;10.74;61.15
50484;BME280;36409;52.168;20.878;2024-01-30T11:33:53;102018.73;;;10.66;62.07
50484;BME280;36409;52.168;20.878;2024-01-30T11:36:26;102010.80;;;10.59;61.25
50484;BME280;36409;52.168;20.878;2024-01-30T11:38:55;101999.36;;;10.47;61.95
50484;BME280;36409;52.168;20.878;2024-01-30T11:41:25;102002.56;;;10.28;61.27
50484;BME280;36409;52.168;20.878;2024-01-30T11:43:54;102003.20;;;10.10;61.45
50484;BME280;36409;52.168;20.878;2024-01-30T11:46:25;101996.84;;;9.92;61.20
50484;BME280;36409;52.168;20.878;2024-01-30T11:48:54;102000.11;;;9.77;61.21
50484;BME280;36409;52.168;20.878;2024-01-30T11:51:23;101993.78;;;9.61;60.67
50484;BME280;36409;52.168;20.878;2024-01-30T11:53:52;101991.80;;;9.45;61.67
50484;BME280;36409;52.168;20.878;2024-01-30T11:56:20;102004.70;;;9.37;61.17
50484;BME280;36409;52.168;20.878;2024-01-30T11:58:50;101995.82;;;9.25;61.17
50484;BME280;36409;52.168;20.878;2024-01-30T12:01:21;101985.27;;;9.18;60.71
50484;BME280;36409;52.168;20.878;2024-01-30T12:03:50;101996.44;;;9.10;60.66
50484;BME280;36409;52.168;20.878;2024-01-30T12:06:20;101986.70;;;9.00;60.52
50484;BME280;36409;52.168;20.878;2024-01-30T12:08:58;101990.84;;;8.89;61.11
50484;BME280;36409;52.168;20.878;2024-01-30T12:11:27;101989.00;;;8.83;60.77
50484;BME280;36409;52.168;20.878;2024-01-30T12:14:00;101989.80;;;8.80;60.85
50484;BME280;36409;52.168;20.878;2024-01-30T12:16:29;101983.64;;;8.75;60.98
50484;BME280;36409;52.168;20.878;2024-01-30T12:19:22;101981.83;;;8.73;61.54
50484;BME280;36409;52.168;20.878;2024-01-30T12:21:55;101981.74;;;8.68;60.82
50484;BME280;36409;52.168;20.878;2024-01-30T12:24:27;101982.57;;;8.65;61.24
50484;BME280;36409;52.168;20.878;2024-01-30T12:26:59;101980.80;;;8.63;61.60
50484;BME280;36409;52.168;20.878;2024-01-30T12:29:32;101983.26;;;8.57;61.50
50484;BME280;36409;52.168;20.878;2024-01-30T12:32:07;101984.91;;;8.52;60.82
50484;BME280;36409;52.168;20.878;2024-01-30T12:34:41;101977.88;;;8.47;60.87
50484;BME280;36409;52.168;20.878;2024-01-30T12:37:25;101975.22;;;8.46;61.13
50484;BME280;36409;52.168;20.878;2024-01-30T12:39:55;101972.53;;;8.41;61.34
50484;BME280;36409;52.168;20.878;2024-01-30T12:42:24;101964.63;;;8.37;61.15
50484;BME280;36409;52.168;20.878;2024-01-30T12:44:57;101962.80;;;8.32;60.75
50484;BME280;36409;52.168;20.878;2024-01-30T12:47:27;101965.33;;;8.29;60.61
50484;BME280;36409;52.168;20.878;2024-01-30T12:49:56;101962.69;;;8.26;61.18
50484;BME280;36409;52.168;20.878;2024-01-30T12:52:25;101953.05;;;8.22;60.75
50484;BME280;36409;52.168;20.878;2024-01-30T12:54:55;101961.61;;;8.16;61.18
50484;BME280;36409;52.168;20.878;2024-01-30T12:57:24;101954.55;;;8.11;60.65
50484;BME280;36409;52.168;20.878;2024-01-30T12:59:53;101956.12;;;8.02;60.35
50484;BME280;36409;52.168;20.878;2024-01-30T13:02:22;101961.22;;;7.98;61.18